Time;durP1;ratioP1;P1;durP2;ratioP2;P2;SDS_P1;SDS_P2;PMS_P1;PMS_P2;Temp;Humidity;BMP_temperature;BMP_pressure;BME280_temperature;BME280_humidity;BME280_pressure;Samples;Min_cycle;Max_cycle;Signal;HPM_P1;HPM_P2
2022/03/29 00:00:48;;;;;;;27.85;16.40;;;;;;;5.92;100.00;99211.56;5050330;28;20049;-48
2022/03/29 00:03:33;;;;;;;27.55;15.77;;;;;;;5.83;100.00;99203.91;5049068;28;20041;-47
2022/03/29 00:06:17;;;;;;;32.75;17.33;;;;;;;5.85;100.00;99212.56;5048754;28;20049;-48
2022/03/29 00:09:03;;;;;;;30.35;17.40;;;;;;;5.83;100.00;99203.91;5048956;28;20041;-47
2022/03/29 00:11:48;;;;;;;35.20;18.20;;;;;;;5.79;100.00;99202.25;5049536;28;20052;-48
2022/03/29 00:14:32;;;;;;;27.98;17.30;;;;;;;5.84;100.00;99206.47;5048724;28;20052;-49
2022/03/29 00:17:17;;;;;;;25.98;14.95;;;;;;;5.88;100.00;99204.69;5051976;28;20051;-48
2022/03/29 00:20:02;;;;;;;27.98;15.68;;;;;;;5.90;100.00;99202.94;5049025;28;20655;-49
2022/03/29 00:22:47;;;;;;;30.35;14.88;;;;;;;5.96;100.00;99202.00;5049638;28;20048;-48
2022/03/29 00:25:32;;;;;;;30.65;16.40;;;;;;;5.95;100.00;99195.09;5048060;28;20056;-49
2022/03/29 00:28:17;;;;;;;28.35;15.68;;;;;;;5.94;100.00;99196.81;5052054;28;20037;-49
2022/03/29 00:31:01;;;;;;;26.65;15.75;;;;;;;5.94;100.00;99196.81;5047048;28;20391;-49
2022/03/29 00:33:47;;;;;;;31.20;16.80;;;;;;;5.92;100.00;99197.72;5050571;28;20044;-49
2022/03/29 00:36:32;;;;;;;24.45;14.30;;;;;;;5.91;100.00;99198.59;5047440;28;20082;-49
2022/03/29 00:39:17;;;;;;;26.95;15.13;;;;;;;5.88;100.00;99198.63;5048795;28;20048;-48
2022/03/29 00:42:01;;;;;;;25.08;14.38;;;;;;;5.91;100.00;99196.84;5049552;28;20049;-48
2022/03/29 00:44:46;;;;;;;28.15;15.13;;;;;;;5.82;100.00;99192.66;5045675;28;20044;-49
2022/03/29 00:47:30;;;;;;;23.42;14.15;;;;;;;5.91;100.00;99183.84;5050427;28;20045;-48
2022/03/29 00:50:15;;;;;;;25.55;15.20;;;;;;;5.98;100.00;99187.22;5047678;28;20045;-48
2022/03/29 00:52:59;;;;;;;22.33;14.13;;;;;;;6.03;100.00;99183.69;5050705;28;20052;-48
2022/03/29 00:55:44;;;;;;;25.38;15.18;;;;;;;6.06;100.00;99177.59;5047412;28;20053;-48
2022/03/29 00:58:30;;;;;;;26.23;15.10;;;;;;;6.08;100.00;99175.81;5048169;28;20749;-48
2022/03/29 01:01:16;;;;;;;23.83;13.40;;;;;;;6.14;100.00;99178.28;5049043;28;20056;-48
2022/03/29 01:04:00;;;;;;;22.15;13.38;;;;;;;6.17;100.00;99177.38;5049426;28;20136;-48
2022/03/29 01:06:45;;;;;;;24.10;13.75;;;;;;;6.15;100.00;99174.84;5047646;28;20649;-48
2022/03/29 01:09:30;;;;;;;26.27;13.40;;;;;;;6.28;100.00;99173.72;5049949;28;20087;-48
2022/03/29 01:12:16;;;;;;;23.27;13.77;;;;;;;6.37;100.00;99171.84;5049575;28;20067;-48
2022/03/29 01:15:04;;;;;;;23.38;13.65;;;;;;;6.41;100.00;99161.34;5050997;28;20463;-49
2022/03/29 01:17:50;;;;;;;21.88;13.88;;;;;;;6.49;100.00;99166.41;5048305;28;20044;-49
2022/03/29 01:20:37;;;;;;;24.45;14.70;;;;;;;6.49;100.00;99154.25;5047028;28;20743;-48
2022/03/29 01:23:21;;;;;;;21.65;12.70;;;;;;;6.62;100.00;99160.09;5048241;28;20603;-48
2022/03/29 01:26:06;;;;;;;21.52;12.68;;;;;;;6.63;100.00;99166.16;5047043;28;20057;-49
2022/03/29 01:28:51;;;;;;;21.77;13.07;;;;;;;6.72;100.00;99155.56;5047900;28;20064;-48
2022/03/29 01:31:36;;;;;;;22.17;12.27;;;;;;;6.67;100.00;99157.41;5047306;28;20095;-48
2022/03/29 01:34:21;;;;;;;22.60;12.55;;;;;;;6.63;100.00;99154.00;5048200;28;20388;-48
2022/03/29 01:37:06;;;;;;;24.38;13.43;;;;;;;6.64;100.00;99157.47;5047415;28;20510;-49
2022/03/29 01:39:51;;;;;;;24.48;12.80;;;;;;;6.62;100.00;99157.47;5048212;28;20037;-49
2022/03/29 01:42:35;;;;;;;20.75;11.88;;;;;;;6.57;100.00;99156.72;5047160;28;20060;-48
2022/03/29 01:45:24;;;;;;;23.02;12.35;;;;;;;6.57;100.00;99155.88;5048041;28;20045;-48
2022/03/29 01:48:09;;;;;;;23.05;13.10;;;;;;;6.48;100.00;99151.69;5045053;28;20045;-49
2022/03/29 01:50:53;;;;;;;26.48;14.27;;;;;;;6.44;100.00;99150.91;5048121;28;20052;-48
2022/03/29 01:53:38;;;;;;;22.33;13.95;;;;;;;6.50;100.00;99158.59;5046466;28;20124;-48
2022/03/29 01:56:27;;;;;;;18.27;10.75;;;;;;;6.52;100.00;99150.75;5047562;28;20048;-48
2022/03/29 01:59:11;;;;;;;23.15;13.30;;;;;;;6.60;100.00;99158.41;5047384;28;20049;-49
2022/03/29 02:01:56;;;;;;;18.38;11.52;;;;;;;6.70;100.00;99155.59;5048212;28;20048;-48
2022/03/29 02:04:40;;;;;;;21.50;11.85;;;;;;;6.80;100.00;99156.28;5045659;28;20049;-49
2022/03/29 02:07:25;;;;;;;17.88;11.77;;;;;;;6.83;100.00;99148.41;5048687;28;20429;-49
2022/03/29 02:10:09;;;;;;;22.33;12.30;;;;;;;6.88;100.00;99143.09;5044336;28;20395;-48
2022/03/29 02:12:54;;;;;;;16.70;11.00;;;;;;;6.91;100.00;99140.44;5048390;28;20387;-49
2022/03/29 02:15:39;;;;;;;21.05;11.65;;;;;;;6.85;100.00;99138.81;5049194;28;20032;-48
2022/03/29 02:18:24;;;;;;;24.50;12.55;;;;;;;6.85;100.00;99138.81;5046402;28;20387;-49
2022/03/29 02:21:08;;;;;;;18.27;11.32;;;;;;;6.84;100.00;99139.69;5046438;28;20391;-49
2022/03/29 02:23:52;;;;;;;22.92;12.68;;;;;;;6.81;100.00;99141.50;5048445;28;20041;-48
2022/03/29 02:26:36;;;;;;;22.40;11.85;;;;;;;6.83;100.00;99145.81;5046089;28;20033;-48
2022/03/29 02:29:21;;;;;;;19.58;11.65;;;;;;;6.93;100.00;99144.72;5046463;28;20087;-48
2022/03/29 02:32:06;;;;;;;18.42;11.38;;;;;;;7.10;100.00;99141.75;5048389;28;20045;-48
2022/03/29 02:34:50;;;;;;;19.52;11.60;;;;;;;7.20;100.00;99134.59;5045178;28;20053;-48
2022/03/29 02:37:35;;;;;;;20.40;12.48;;;;;;;7.29;100.00;99136.16;5049973;28;20138;-48
2022/03/29 02:40:20;;;;;;;16.42;11.05;;;;;;;7.29;100.00;99138.75;5045003;28;20060;-48
2022/03/29 02:43:04;;;;;;;15.85;10.63;;;;;;;7.27;100.00;99141.38;5047381;28;20041;-49
2022/03/29 02:45:49;;;;;;;17.88;10.60;;;;;;;7.30;100.00;99135.25;5048817;28;20041;-49
2022/03/29 02:48:33;;;;;;;16.48;10.70;;;;;;;7.26;100.00;99126.66;5045503;28;20114;-49
2022/03/29 02:51:18;;;;;;;18.63;10.75;;;;;;;7.31;100.00;99122.19;5053322;28;20060;-48
2022/03/29 02:54:03;;;;;;;16.77;8.93;;;;;;;7.28;100.00;99124.00;5052711;28;20602;-49
2022/03/29 02:56:47;;;;;;;15.98;9.43;;;;;;;7.31;100.00;99124.78;5050613;28;20045;-49
2022/03/29 02:59:31;;;;;;;15.55;9.05;;;;;;;7.29;100.00;99118.78;5050022;28;20143;-48
2022/03/29 03:02:16;;;;;;;13.60;9.00;;;;;;;7.17;100.00;99113.84;5049125;28;20045;-49
2022/03/29 03:05:01;;;;;;;14.50;8.55;;;;;;;7.22;100.00;99117.22;5049030;28;20491;-48
2022/03/29 03:07:46;;;;;;;15.05;9.25;;;;;;;7.14;100.00;99114.75;5049898;28;20090;-49
2022/03/29 03:10:31;;;;;;;11.50;8.13;;;;;;;7.15;100.00;99107.78;5050489;28;20064;-48
2022/03/29 03:13:16;;;;;;;13.77;8.27;;;;;;;7.18;100.00;99100.78;5048136;28;20364;-48
2022/03/29 03:16:00;;;;;;;16.13;8.52;;;;;;;7.15;100.00;99106.06;5050166;28;20041;-49
2022/03/29 03:18:45;;;;;;;13.07;8.18;;;;;;;7.02;100.00;99083.78;5048632;28;20045;-48
2022/03/29 03:21:29;;;;;;;10.63;7.75;;;;;;;7.02;100.00;99083.78;5050017;28;20049;-49
2022/03/29 03:24:14;;;;;;;10.65;7.68;;;;;;;7.02;100.00;99083.78;5048757;28;20502;-49
2022/03/29 03:26:58;;;;;;;14.38;7.35;;;;;;;6.94;100.00;99081.34;5052219;28;20395;-48
2022/03/29 03:29:46;;;;;;;11.10;7.88;;;;;;;6.96;100.00;99074.38;5050711;28;20084;-48
2022/03/29 03:32:31;;;;;;;12.90;7.68;;;;;;;6.88;100.00;99078.00;5051912;28;20647;-48
2022/03/29 03:35:15;;;;;;;10.80;7.65;;;;;;;6.80;100.00;99078.19;5049017;28;20049;-48
2022/03/29 03:38:00;;;;;;;11.48;7.28;;;;;;;6.89;100.00;99079.72;5050748;28;20041;-48
2022/03/29 03:40:45;;;;;;;12.50;8.27;;;;;;;6.82;100.00;99088.56;5050902;28;20605;-49
2022/03/29 03:43:29;;;;;;;12.85;7.57;;;;;;;6.76;100.00;99085.22;5049259;28;20479;-48
2022/03/29 03:46:14;;;;;;;14.52;7.93;;;;;;;6.78;100.00;99083.41;5050025;28;20044;-48
2022/03/29 03:49:00;;;;;;;15.73;9.88;;;;;;;6.79;100.00;99082.53;5052742;28;20121;-48
2022/03/29 03:51:45;;;;;;;25.50;14.10;;;;;;;6.68;100.00;99092.31;5049794;28;20049;-47
2022/03/29 03:54:29;;;;;;;21.48;13.18;;;;;;;6.75;100.00;99091.28;5050932;28;20096;-48
2022/03/29 03:57:14;;;;;;;26.02;13.48;;;;;;;6.70;100.00;99102.69;5051038;28;20044;-49
2022/03/29 03:59:58;;;;;;;21.67;13.23;;;;;;;6.66;100.00;99104.50;5049871;28;20106;-48
2022/03/29 04:02:43;;;;;;;25.65;15.00;;;;;;;6.65;100.00;99101.94;5048871;28;20548;-48
2022/03/29 04:05:27;;;;;;;22.83;13.48;;;;;;;6.60;100.00;99104.63;5050123;28;20044;-48
2022/03/29 04:08:12;;;;;;;45.40;26.33;;;;;;;6.50;100.00;99110.88;5047641;28;20371;-49
2022/03/29 04:10:57;;;;;;;93.78;46.95;;;;;;;6.35;100.00;99101.66;5047645;28;20052;-49
2022/03/29 04:13:41;;;;;;;84.93;46.35;;;;;;;6.30;100.00;99106.94;5048671;28;20294;-48
2022/03/29 04:16:27;;;;;;;26.02;15.68;;;;;;;6.17;100.00;99096.78;5049723;28;20037;-48
2022/03/29 04:19:12;;;;;;;16.92;10.23;;;;;;;6.22;100.00;99107.97;5047904;28;20049;-48
2022/03/29 04:21:56;;;;;;;15.63;10.02;;;;;;;6.07;100.00;99109.94;5053046;28;20032;-49
2022/03/29 04:24:40;;;;;;;22.17;16.52;;;;;;;6.00;100.00;99108.34;5048665;28;20045;-48
2022/03/29 04:27:24;;;;;;;23.92;16.13;;;;;;;6.11;100.00;99109.88;5046545;28;20045;-49
2022/03/29 04:30:10;;;;;;;21.92;15.25;;;;;;;5.96;100.00;99111.03;5049366;28;20033;-48
2022/03/29 04:32:54;;;;;;;20.50;14.75;;;;;;;6.06;100.00;99110.84;5047818;28;20380;-48
2022/03/29 04:35:39;;;;;;;16.52;12.85;;;;;;;5.97;100.00;99107.53;5049039;28;20053;-48
2022/03/29 04:38:23;;;;;;;19.65;14.27;;;;;;;5.86;100.00;99115.50;5047925;28;20273;-48
2022/03/29 04:41:08;;;;;;;15.23;12.07;;;;;;;5.87;100.00;99109.41;5043074;28;20052;-47
2022/03/29 04:43:52;;;;;;;18.35;13.05;;;;;;;5.69;100.00;99109.69;5045007;28;20056;-48
2022/03/29 04:46:36;;;;;;;18.92;13.57;;;;;;;5.76;100.00;99114.78;5045777;28;20743;-49
2022/03/29 04:49:21;;;;;;;25.65;18.38;;;;;;;5.69;100.00;99104.50;5044031;28;20057;-49
2022/03/29 04:52:06;;;;;;;25.25;17.08;;;;;;;5.74;100.00;99113.94;5045957;28;20399;-49
2022/03/29 04:54:50;;;;;;;21.90;12.70;;;;;;;5.65;100.00;99119.28;5044297;28;20271;-48
2022/03/29 04:57:34;;;;;;;24.48;13.63;;;;;;;5.77;100.00;99120.84;5044886;28;20049;-47
2022/03/29 05:00:23;;;;;;;41.42;16.23;;;;;;;5.68;100.00;99127.03;5045478;28;20049;-48
2022/03/29 05:03:07;;;;;;;36.75;14.48;;;;;;;5.76;100.00;99121.75;5044980;28;20041;-48
2022/03/29 05:05:51;;;;;;;27.60;13.05;;;;;;;5.75;100.00;99120.00;5045255;28;20055;-49
2022/03/29 05:08:36;;;;;;;19.52;11.55;;;;;;;5.78;100.00;99120.81;5045261;28;20739;-48
2022/03/29 05:11:21;;;;;;;19.00;10.98;;;;;;;5.78;100.00;99118.19;5046873;28;20643;-48
2022/03/29 05:14:05;;;;;;;18.92;10.10;;;;;;;5.95;100.00;99117.97;5046526;28;20084;-48
2022/03/29 05:16:49;;;;;;;21.60;11.73;;;;;;;6.09;100.00;99115.13;5044580;28;20053;-48
2022/03/29 05:19:34;;;;;;;17.25;10.10;;;;;;;6.18;100.00;99112.38;5044411;28;20130;-49
2022/03/29 05:22:18;;;;;;;16.00;9.82;;;;;;;6.27;100.00;99120.00;5045367;28;20053;-48
2022/03/29 05:25:03;;;;;;;13.90;8.80;;;;;;;6.35;100.00;99122.44;5045865;28;20045;-48
2022/03/29 05:27:49;;;;;;;18.73;10.27;;;;;;;6.45;100.00;99120.53;5045883;28;20049;-48
2022/03/29 05:30:34;;;;;;;17.00;9.93;;;;;;;6.46;100.00;99128.28;5043235;28;20048;-49
2022/03/29 05:33:19;;;;;;;18.80;12.55;;;;;;;6.66;100.00;99127.06;5049633;28;20049;-49
2022/03/29 05:36:04;;;;;;;26.50;14.13;;;;;;;6.97;100.00;99122.94;5045954;28;20124;-49
2022/03/29 05:38:50;;;;;;;20.63;12.80;;;;;;;7.46;100.00;99134.03;5043988;28;20064;-49
2022/03/29 05:41:35;;;;;;;15.75;9.73;;;;;;;7.77;100.00;99133.28;5044062;28;20049;-49
2022/03/29 05:44:19;;;;;;;16.17;10.00;;;;;;;7.74;100.00;99131.63;5044358;28;20044;-49
2022/03/29 05:50:09;;;;;;;11.77;8.55;;;;;;;8.05;100.00;99136.06;5045923;28;20148;-49
2022/03/29 05:52:54;;;;;;;15.80;9.55;;;;;;;7.87;100.00;99140.00;5045840;28;20041;-48
2022/03/29 05:55:39;;;;;;;12.88;9.10;;;;;;;7.85;100.00;99140.03;5046220;28;20127;-48
2022/03/29 05:58:24;;;;;;;14.48;9.90;;;;;;;7.50;100.00;99138.25;5044513;28;20045;-48
2022/03/29 06:01:08;;;;;;;16.95;9.50;;;;;;;7.44;100.00;99136.69;5044778;28;20764;-49
2022/03/29 06:03:52;;;;;;;18.73;9.77;;;;;;;7.55;100.00;99148.59;5043543;28;20049;-48
2022/03/29 06:06:38;;;;;;;19.08;11.43;;;;;;;7.64;100.00;99148.38;5045041;28;20045;-49
2022/03/29 06:09:23;;;;;;;17.20;10.95;;;;;;;7.75;100.00;99146.38;5043996;28;20036;-48
2022/03/29 06:12:07;;;;;;;15.65;10.95;;;;;;;7.63;100.00;99141.44;5044327;28;20041;-49
2022/03/29 06:14:52;;;;;;;15.65;9.40;;;;;;;7.54;100.00;99144.25;5044981;28;20048;-49
2022/03/29 06:17:36;;;;;;;17.98;10.38;;;;;;;7.59;100.00;99152.84;5043548;28;20048;-49
2022/03/29 06:20:20;;;;;;;18.23;10.57;;;;;;;7.59;100.00;99158.03;5044202;28;20040;-48
2022/03/29 06:23:05;;;;;;;16.30;9.15;;;;;;;7.52;100.00;99146.91;5044411;28;20056;-49
2022/03/29 06:25:50;;;;;;;16.70;10.48;;;;;;;7.68;100.00;99158.69;5043299;28;20060;-48
2022/03/29 06:28:34;;;;;;;15.73;10.10;;;;;;;7.65;100.00;99152.69;5044579;28;20043;-48
2022/03/29 06:31:21;;;;;;;14.15;10.05;;;;;;;7.91;100.00;99150.31;5043743;28;20083;-48
2022/03/29 06:34:05;;;;;;;15.32;9.98;;;;;;;7.94;100.00;99150.25;5039327;28;20071;-48
2022/03/29 06:36:50;;;;;;;14.95;9.77;;;;;;;7.90;100.00;99151.22;5044017;28;20430;-48
2022/03/29 06:39:34;;;;;;;18.00;9.85;;;;;;;7.91;100.00;99144.25;5045673;28;20157;-49
2022/03/29 06:42:20;;;;;;;15.07;10.18;;;;;;;8.30;100.00;99150.19;5043499;28;20045;-49
2022/03/29 06:45:07;;;;;;;15.63;9.65;;;;;;;8.33;97.75;99155.34;5036204;28;20144;-49
2022/03/29 06:47:52;;;;;;;19.50;10.80;;;;;;;8.66;98.37;99150.13;5031378;28;20049;-49
2022/03/29 06:50:36;;;;;;;15.10;10.32;;;;;;;8.80;96.50;99147.97;5040381;28;20053;-50
2022/03/29 06:53:21;;;;;;;20.83;10.77;;;;;;;8.72;95.37;99154.34;5031190;28;20563;-49
2022/03/29 06:56:07;;;;;;;16.20;10.65;;;;;;;8.96;93.36;99152.78;5023706;28;20037;-49
2022/03/29 06:58:51;;;;;;;14.48;9.15;;;;;;;9.01;94.17;99159.59;5031374;28;20381;-49
2022/03/29 07:01:36;;;;;;;19.45;14.15;;;;;;;9.12;94.00;99149.66;5025339;28;20041;-49
2022/03/29 07:04:21;;;;;;;14.70;9.35;;;;;;;9.34;92.37;99152.50;5027193;28;20045;-49
2022/03/29 07:07:06;;;;;;;14.55;9.80;;;;;;;9.36;91.00;99149.84;5028267;28;20129;-49
2022/03/29 07:13:00;;;;;;;13.95;9.60;;;;;;;9.53;90.49;99144.09;5025962;28;20046;-49
2022/03/29 07:15:48;;;;;;;17.05;9.57;;;;;;;9.68;87.87;99156.66;5028365;28;20049;-50
2022/03/29 07:18:33;;;;;;;13.23;9.90;;;;;;;9.57;88.64;99153.56;5026324;28;20050;-50
2022/03/29 07:21:18;;;;;;;16.83;13.52;;;;;;;9.60;88.07;99161.31;5026048;28;20053;-49
2022/03/29 07:24:03;;;;;;;17.38;11.00;;;;;;;9.69;86.94;99161.03;5026314;28;20049;-49
2022/03/29 07:26:48;;;;;;;14.13;10.07;;;;;;;9.80;86.35;99163.28;5024947;28;20042;-49
2022/03/29 07:29:33;;;;;;;17.80;10.25;;;;;;;9.75;86.12;99155.59;5025222;28;20049;-51
2022/03/29 07:32:18;;;;;;;15.35;10.43;;;;;;;9.56;86.78;99165.78;5026031;28;20049;-50
2022/03/29 07:35:02;;;;;;;14.48;9.40;;;;;;;9.78;86.61;99159.84;5028992;28;20060;-49
2022/03/29 07:37:47;;;;;;;16.27;10.90;;;;;;;9.74;85.96;99148.63;5030392;28;20045;-50
2022/03/29 07:40:31;;;;;;;16.38;10.40;;;;;;;9.89;84.41;99156.91;5030216;28;20115;-51
2022/03/29 07:43:16;;;;;;;17.58;9.77;;;;;;;10.10;83.74;99147.50;5028538;28;20057;-50
2022/03/29 07:46:00;;;;;;;15.02;8.98;;;;;;;10.26;83.65;99152.19;5029928;28;20045;-50
2022/03/29 07:48:45;;;;;;;17.02;9.60;;;;;;;10.49;82.18;99142.69;5028508;28;20045;-50
2022/03/29 07:51:29;;;;;;;15.45;10.38;;;;;;;10.59;79.80;99143.22;5027728;28;20184;-50
2022/03/29 07:54:14;;;;;;;14.30;9.23;;;;;;;10.71;81.01;99143.63;5027843;28;20523;-51
2022/03/29 07:56:58;;;;;;;18.25;10.15;;;;;;;10.81;79.67;99145.91;5029586;28;20064;-50
2022/03/29 07:59:43;;;;;;;14.88;10.20;;;;;;;10.91;79.62;99144.66;5027452;28;20499;-50
2022/03/29 08:02:27;;;;;;;15.00;10.85;;;;;;;10.66;79.11;99136.84;5028923;28;20049;-50
2022/03/29 08:05:12;;;;;;;18.95;11.65;;;;;;;10.75;79.59;99128.66;5028196;28;20049;-50
2022/03/29 08:07:57;;;;;;;15.35;11.23;;;;;;;10.82;79.35;99134.50;5028645;28;20140;-50
2022/03/29 08:10:43;;;;;;;13.52;10.38;;;;;;;11.13;78.56;99129.84;5026926;28;20053;-51
2022/03/29 08:13:28;;;;;;;23.10;15.52;;;;;;;11.02;77.31;99132.03;5024878;28;20065;-51
2022/03/29 08:16:13;;;;;;;20.67;13.52;;;;;;;11.36;77.36;99128.97;5026709;28;20045;-51
2022/03/29 08:18:59;;;;;;;22.00;16.50;;;;;;;11.04;76.42;99121.47;5026566;28;20142;-50
2022/03/29 08:21:50;;;;;;;15.90;11.82;;;;;;;10.89;77.42;99123.78;5027210;28;20049;-50
2022/03/29 08:24:35;;;;;;;28.73;21.25;;;;;;;11.05;76.95;99118.81;5027656;28;20045;-50
2022/03/29 08:27:19;;;;;;;49.80;27.88;;;;;;;10.95;76.77;99120.94;5027556;28;20095;-50
2022/03/29 08:30:04;;;;;;;138.65;73.85;;;;;;;11.17;76.40;99118.31;5027354;28;20075;-50
2022/03/29 08:32:49;;;;;;;30.42;20.00;;;;;;;11.14;76.38;99121.06;5026939;28;20786;-50
2022/03/29 08:35:35;;;;;;;16.67;12.65;;;;;;;11.05;76.81;99110.06;5025809;28;20776;-50
2022/03/29 08:38:19;;;;;;;18.38;13.02;;;;;;;11.18;76.09;99117.44;5028051;28;20045;-50
2022/03/29 08:41:05;;;;;;;17.00;13.15;;;;;;;11.15;75.54;99114.09;5026516;28;20053;-50
2022/03/29 08:43:50;;;;;;;26.45;13.40;;;;;;;11.09;76.40;99117.78;5026765;28;20053;-50
2022/03/29 08:46:38;;;;;;;19.50;14.38;;;;;;;10.99;76.30;99121.66;5027608;28;20750;-50
2022/03/29 08:49:23;;;;;;;22.83;14.43;;;;;;;10.88;76.26;99116.81;5026113;28;20052;-50
2022/03/29 08:52:08;;;;;;;21.75;13.85;;;;;;;10.71;77.08;99114.81;5027038;28;20203;-50
2022/03/29 08:54:53;;;;;;;18.45;13.20;;;;;;;10.75;77.05;99113.78;5026351;28;20503;-50
2022/03/29 08:57:38;;;;;;;19.13;13.68;;;;;;;10.72;76.83;99121.78;5028140;28;20045;-50
2022/03/29 09:00:23;;;;;;;19.98;14.90;;;;;;;10.66;77.20;99128.97;5029838;28;20042;-51
2022/03/29 09:03:08;;;;;;;24.23;15.30;;;;;;;10.68;77.33;99128.03;5030397;28;20045;-50
2022/03/29 09:06:13;;;;;;;32.45;17.00;;;;;;;10.74;77.29;99126.94;5027286;28;20045;-50
2022/03/29 09:08:58;;;;;;;38.05;20.42;;;;;;;10.66;76.53;99123.75;5028829;28;20102;-50
2022/03/29 09:11:43;;;;;;;46.08;22.75;;;;;;;10.53;76.87;99129.44;5029179;28;20126;-50
2022/03/29 09:14:29;;;;;;;60.25;35.38;;;;;;;10.52;77.83;99119.00;5028023;28;20057;-50
2022/03/29 09:17:35;;;;;;;58.72;29.23;;;;;;;10.44;78.56;99127.13;5029390;28;20053;-50
2022/03/29 09:20:24;;;;;;;33.40;18.42;;;;;;;10.20;79.45;99125.34;5029260;28;20158;-50
2022/03/29 09:23:17;;;;;;;22.45;15.30;;;;;;;10.48;79.22;99122.66;5028162;28;20048;-50
2022/03/29 09:26:02;;;;;;;23.70;14.75;;;;;;;10.26;79.84;99112.91;5027500;28;20480;-51
2022/03/29 09:28:50;;;;;;;80.82;42.58;;;;;;;10.40;78.63;99098.50;5028504;28;20041;-51
2022/03/29 09:31:35;;;;;;;50.20;27.85;;;;;;;10.62;79.38;99104.66;5027330;28;20053;-51
2022/03/29 09:34:20;;;;;;;26.02;15.55;;;;;;;10.60;78.21;99106.50;5028463;28;20089;-50
2022/03/29 09:37:05;;;;;;;21.77;15.48;;;;;;;10.65;78.57;99107.19;5025635;28;20096;-51
2022/03/29 09:39:50;;;;;;;24.38;14.77;;;;;;;10.80;77.75;99099.69;5027791;28;20053;-50
2022/03/29 09:43:06;;;;;;;20.48;15.18;;;;;;;10.82;76.87;99101.34;5024373;28;20408;-51
2022/03/29 09:45:55;;;;;;;21.75;15.18;;;;;;;10.87;76.31;99091.53;5028368;28;20037;-51
2022/03/29 09:48:40;;;;;;;18.13;14.00;;;;;;;11.13;76.35;99087.91;5027771;28;20136;-51
2022/03/29 09:51:27;;;;;;;19.85;13.05;;;;;;;11.25;75.14;99094.47;5024320;28;20049;-51
2022/03/29 09:54:11;;;;;;;25.90;16.58;;;;;;;11.27;73.99;99095.22;5028217;28;20140;-51
2022/03/29 09:56:57;;;;;;;63.03;25.42;;;;;;;11.17;74.87;99084.25;5027182;28;20077;-50
2022/03/29 09:59:49;;;;;;;50.63;19.33;;;;;;;11.16;73.78;99089.56;5027391;28;20052;-52
2022/03/29 10:02:40;;;;;;;19.80;13.60;;;;;;;11.30;73.35;99075.91;5028481;28;20435;-51
2022/03/29 10:05:26;;;;;;;19.38;13.90;;;;;;;11.39;72.29;99075.56;5028162;28;20633;-51
2022/03/29 10:11:18;;;;;;;23.58;14.50;;;;;;;11.57;72.02;99071.31;5027663;28;20045;-51
2022/03/29 10:14:04;;;;;;;56.67;22.25;;;;;;;11.57;73.03;99072.22;5026759;28;20128;-51
2022/03/29 10:16:53;;;;;;;31.45;15.93;;;;;;;11.85;70.99;99058.81;5027508;28;20048;-51
2022/03/29 10:19:38;;;;;;;19.83;13.93;;;;;;;11.70;69.29;99070.78;5027963;28;20041;-51
2022/03/29 10:22:23;;;;;;;22.90;15.35;;;;;;;12.15;69.34;99067.19;5027606;28;20087;-51
2022/03/29 10:25:08;;;;;;;72.43;25.02;;;;;;;12.13;69.32;99078.66;5028124;28;20046;-51
2022/03/29 10:27:55;;;;;;;22.30;15.32;;;;;;;12.23;69.06;99071.22;5026915;28;20045;-51
2022/03/29 10:30:41;;;;;;;30.05;18.50;;;;;;;12.07;68.68;99060.53;5028491;28;20046;-52
2022/03/29 10:33:31;;;;;;;23.30;16.73;;;;;;;11.92;68.86;99062.88;5028420;28;20400;-51
2022/03/29 10:36:17;;;;;;;44.42;21.23;;;;;;;11.58;70.22;99067.81;5028211;28;20052;-50
2022/03/29 10:39:02;;;;;;;35.25;18.50;;;;;;;11.69;70.69;99062.97;5027614;28;20088;-50
2022/03/29 10:41:50;;;;;;;51.58;20.90;;;;;;;11.46;71.92;99062.13;5027294;28;20049;-51
2022/03/29 10:45:06;;;;;;;63.53;25.15;;;;;;;11.56;72.22;99052.13;5027565;28;20049;-50
2022/03/29 10:47:53;;;;;;;30.40;17.60;;;;;;;11.56;71.94;99051.28;5027408;28;20049;-51
2022/03/29 10:50:47;;;;;;;22.77;16.48;;;;;;;11.83;69.57;99051.88;5029385;28;20041;-51
2022/03/29 10:53:37;;;;;;;38.33;18.33;;;;;;;12.03;69.54;99043.22;5027632;28;20458;-51
2022/03/29 10:56:23;;;;;;;42.38;20.25;;;;;;;11.82;69.18;99044.94;5028160;28;20049;-51
2022/03/29 10:59:12;;;;;;;45.22;20.35;;;;;;;12.29;67.41;99036.84;5027734;28;20045;-52
2022/03/29 11:02:14;;;;;;;24.00;14.82;;;;;;;12.53;65.40;99024.38;5028686;28;20120;-51
2022/03/29 11:05:02;;;;;;;31.27;15.98;;;;;;;12.77;64.45;99025.00;5027168;28;20118;-51
2022/03/29 11:07:52;;;;;;;19.42;14.15;;;;;;;12.30;66.30;99021.00;5028189;28;20133;-52
2022/03/29 11:10:43;;;;;;;17.90;14.23;;;;;;;12.25;66.38;99011.63;5030215;28;20123;-50
2022/03/29 11:13:28;;;;;;;19.92;14.93;;;;;;;12.52;64.63;99014.78;5030838;28;20380;-50
2022/03/29 11:16:25;;;;;;;21.02;14.30;;;;;;;12.29;63.92;99011.44;5031884;28;20049;-51
2022/03/29 11:19:48;;;;;;;22.42;13.35;;;;;;;12.71;63.96;99020.06;5029400;28;20152;-51
2022/03/29 11:22:35;;;;;;;21.08;16.50;;;;;;;12.43;65.22;99010.81;5031352;28;20148;-50
2022/03/29 11:25:22;;;;;;;41.15;23.08;;;;;;;12.55;64.42;99014.66;5030739;28;20480;-50
2022/03/29 11:28:07;;;;;;;253.63;112.85;;;;;;;12.52;62.97;99006.91;5029234;28;20054;-51
2022/03/29 11:30:54;;;;;;;55.55;36.13;;;;;;;12.23;63.14;99005.59;5028281;28;20046;-51
2022/03/29 11:33:40;;;;;;;26.02;19.83;;;;;;;12.29;63.08;98997.47;5027636;28;20061;-51
2022/03/29 11:36:24;;;;;;;25.42;16.60;;;;;;;12.18;64.20;98994.44;5027540;28;20051;-51
2022/03/29 11:39:28;;;;;;;21.63;16.90;;;;;;;12.37;64.41;98990.91;5028025;28;20038;-50
2022/03/29 11:42:14;;;;;;;20.48;14.50;;;;;;;12.27;63.88;98992.25;5027802;28;20037;-51
2022/03/29 11:44:58;;;;;;;25.67;14.88;;;;;;;12.83;63.63;98996.66;5026951;28;20057;-51
2022/03/29 11:47:57;;;;;;;17.85;13.25;;;;;;;12.82;61.52;98984.47;5028631;28;20046;-51
2022/03/29 11:51:09;;;;;;;17.95;12.15;;;;;;;12.76;60.86;98984.75;5026372;28;21067;-51
2022/03/29 11:53:57;;;;;;;19.15;12.90;;;;;;;12.95;60.36;98971.59;5026382;28;20103;-51
2022/03/29 11:56:42;;;;;;;18.65;12.32;;;;;;;13.22;60.71;98977.28;5027396;28;20107;-52
2022/03/29 11:59:31;;;;;;;17.05;12.57;;;;;;;12.84;60.41;98973.91;5027214;28;20053;-51
2022/03/29 12:02:21;;;;;;;19.17;13.23;;;;;;;12.68;60.96;98968.50;5027270;28;20045;-51
2022/03/29 12:05:07;;;;;;;18.33;11.60;;;;;;;12.97;61.40;98968.91;5024457;28;20053;-51
2022/03/29 12:07:57;;;;;;;17.80;13.02;;;;;;;12.84;59.75;98961.59;5025791;28;21452;-50
2022/03/29 12:10:41;;;;;;;18.83;12.80;;;;;;;12.65;60.85;98966.03;5025935;28;21153;-51
2022/03/29 12:13:26;;;;;;;19.13;14.20;;;;;;;12.43;62.61;98967.94;5025943;28;20057;-51
2022/03/29 12:16:22;;;;;;;20.20;13.77;;;;;;;12.11;63.79;98962.38;5025194;28;20571;-51
2022/03/29 12:19:12;;;;;;;21.35;14.23;;;;;;;12.37;62.99;98954.16;5027524;28;20049;-51
2022/03/29 12:22:00;;;;;;;23.42;13.82;;;;;;;12.49;63.15;98952.75;5023450;28;20057;-51
2022/03/29 12:24:46;;;;;;;22.30;13.50;;;;;;;12.51;62.15;98953.53;5028221;28;20139;-51
2022/03/29 12:27:31;;;;;;;17.70;13.07;;;;;;;12.22;63.33;98956.63;5022819;28;20136;-51
2022/03/29 12:30:15;;;;;;;18.88;12.68;;;;;;;12.34;62.49;98956.91;5025539;28;20037;-51
2022/03/29 12:33:00;;;;;;;23.15;12.77;;;;;;;12.29;63.01;98958.06;5026039;28;20054;-51
2022/03/29 12:35:45;;;;;;;22.73;13.55;;;;;;;12.26;61.76;98958.22;5028053;28;20041;-51
2022/03/29 12:38:39;;;;;;;21.73;13.32;;;;;;;12.34;62.58;98946.41;5023870;28;20049;-51
2022/03/29 12:41:32;;;;;;;23.90;14.07;;;;;;;12.58;60.84;98944.44;5024089;28;20057;-50
2022/03/29 12:44:30;;;;;;;20.53;12.87;;;;;;;12.64;60.10;98940.66;5026809;28;20502;-51
2022/03/29 12:47:16;;;;;;;17.23;12.88;;;;;;;12.73;58.95;98936.75;5025692;28;20060;-51
2022/03/29 12:50:02;;;;;;;22.75;13.43;;;;;;;12.69;58.42;98935.22;5024596;28;20100;-51
2022/03/29 12:52:47;;;;;;;20.10;13.73;;;;;;;12.32;58.19;98931.69;5024863;28;20042;-51
2022/03/29 12:55:32;;;;;;;19.58;14.45;;;;;;;12.64;58.63;98932.78;5014142;28;20081;-51